Time;durP1;ratioP1;P1;durP2;ratioP2;P2;SDS_P1;SDS_P2;PMS_P1;PMS_P2;Temp;Humidity;BMP_temperature;BMP_pressure;BME280_temperature;BME280_humidity;BME280_pressure;Samples;Min_cycle;Max_cycle;Signal;HPM_P1;HPM_P2
2021/04/25 00:01:17;;;;;;;7.63;4.33;;;6.10;97.60;;;;;;5114562;28;20186;-71
2021/04/25 00:03:43;;;;;;;7.20;5.00;;;6.00;98.10;;;;;;5114809;28;20166;-71
2021/04/25 00:06:08;;;;;;;8.33;5.50;;;6.00;98.60;;;;;;5113999;28;20148;-71
2021/04/25 00:08:34;;;;;;;7.23;5.57;;;5.90;99.30;;;;;;5114784;28;20515;-71
2021/04/25 00:11:01;;;;;;;7.47;4.30;;;5.90;99.80;;;;;;5114432;28;20219;-71
2021/04/25 00:13:27;;;;;;;8.00;5.00;;;5.90;99.90;;;;;;5114525;28;20150;-71
2021/04/25 00:15:52;;;;;;;7.33;4.40;;;5.80;99.90;;;;;;5114192;28;20462;-71
2021/04/25 00:18:18;;;;;;;8.57;4.80;;;5.80;99.90;;;;;;5114436;28;20388;-70
2021/04/25 00:20:44;;;;;;;9.80;5.20;;;5.80;99.90;;;;;;5114541;28;20200;-71
2021/04/25 00:23:10;;;;;;;8.77;4.50;;;5.70;99.90;;;;;;5114457;28;20220;-71
2021/04/25 00:25:35;;;;;;;9.70;5.03;;;5.70;99.90;;;;;;5114375;28;20159;-71
2021/04/25 00:28:01;;;;;;;7.73;5.57;;;5.70;99.90;;;;;;5113975;28;20412;-71
2021/04/25 00:30:26;;;;;;;10.40;6.33;;;5.60;99.90;;;;;;5114235;28;20151;-71
2021/04/25 00:32:52;;;;;;;10.90;7.43;;;5.60;99.90;;;;;;5113989;28;20170;-71
2021/04/25 00:35:18;;;;;;;9.17;5.13;;;5.60;99.90;;;;;;5114764;28;20242;-71
2021/04/25 00:37:45;;;;;;;8.57;6.10;;;5.60;99.90;;;;;;5114120;28;20609;-70
2021/04/25 00:40:12;;;;;;;8.40;5.67;;;5.60;99.90;;;;;;5113913;28;20393;-71
2021/04/25 00:42:38;;;;;;;8.57;5.57;;;5.60;99.90;;;;;;5113941;28;20818;-71
2021/04/25 00:45:08;;;;;;;8.00;6.27;;;5.60;99.90;;;;;;5113899;28;20384;-71
2021/04/25 00:47:33;;;;;;;8.03;6.10;;;5.50;99.90;;;;;;5113834;28;20230;-70
2021/04/25 00:49:59;;;;;;;13.10;5.47;;;5.50;99.90;;;;;;5113843;28;21053;-71
2021/04/25 00:52:26;;;;;;;8.10;5.20;;;5.50;99.90;;;;;;5113907;28;20165;-70
2021/04/25 00:54:51;;;;;;;8.97;5.23;;;5.40;99.90;;;;;;5113721;28;20234;-71
2021/04/25 00:57:17;;;;;;;10.33;5.60;;;5.40;99.90;;;;;;5113711;28;20855;-71
2021/04/25 00:59:43;;;;;;;9.60;6.00;;;5.40;99.90;;;;;;5113810;28;20190;-71
2021/04/25 01:02:10;;;;;;;9.37;5.90;;;5.30;99.90;;;;;;5113514;28;20450;-70
2021/04/25 01:04:37;;;;;;;11.00;5.97;;;5.30;99.90;;;;;;5114091;28;20158;-71
2021/04/25 01:07:03;;;;;;;10.70;5.17;;;5.30;99.90;;;;;;5113580;28;20458;-70
2021/04/25 01:09:30;;;;;;;8.10;5.43;;;5.30;99.90;;;;;;5113849;28;20407;-71
2021/04/25 01:11:56;;;;;;;11.10;6.90;;;5.30;99.90;;;;;;5113543;28;20383;-70
2021/04/25 01:14:22;;;;;;;12.13;7.47;;;5.20;99.90;;;;;;5113548;28;20388;-71
2021/04/25 01:16:48;;;;;;;16.70;6.20;;;5.20;99.90;;;;;;5113328;28;20987;-70
2021/04/25 01:19:13;;;;;;;10.47;5.60;;;5.20;99.90;;;;;;5113815;28;20392;-71
2021/04/25 01:21:39;;;;;;;11.47;6.10;;;5.20;99.90;;;;;;5113064;28;20459;-71
2021/04/25 01:24:05;;;;;;;9.47;5.20;;;5.20;99.90;;;;;;5113309;28;20181;-71
2021/04/25 01:26:30;;;;;;;9.63;5.60;;;5.10;99.90;;;;;;5113138;28;20507;-71
2021/04/25 01:28:56;;;;;;;11.80;6.23;;;5.10;99.90;;;;;;5113555;28;20395;-71
2021/04/25 01:31:22;;;;;;;13.33;6.60;;;5.10;99.90;;;;;;5113861;28;20169;-70
2021/04/25 01:33:47;;;;;;;10.53;5.80;;;5.10;99.90;;;;;;5113529;28;20200;-71
2021/04/25 01:36:13;;;;;;;12.00;6.27;;;5.10;99.90;;;;;;5113328;28;20165;-71
2021/04/25 01:38:39;;;;;;;10.83;6.30;;;5.00;99.90;;;;;;5113214;28;20222;-71
2021/04/25 01:41:04;;;;;;;9.90;6.27;;;5.00;99.90;;;;;;5113040;28;20285;-70
2021/04/25 01:43:30;;;;;;;8.73;5.20;;;5.00;99.90;;;;;;5113184;28;20288;-71
2021/04/25 01:45:55;;;;;;;9.90;6.43;;;4.90;99.90;;;;;;5113279;28;20154;-71
2021/04/25 01:48:21;;;;;;;16.43;7.20;;;4.90;99.90;;;;;;5113372;28;20225;-71
2021/04/25 01:50:47;;;;;;;9.50;6.13;;;4.90;99.90;;;;;;5113179;28;20236;-71
2021/04/25 01:53:12;;;;;;;10.30;6.30;;;4.90;99.90;;;;;;5113459;28;20150;-71
2021/04/25 01:55:39;;;;;;;11.13;6.33;;;4.90;99.90;;;;;;5113036;28;20169;-71
2021/04/25 01:58:09;;;;;;;11.70;5.80;;;4.90;99.90;;;;;;5113011;28;20174;-70
2021/04/25 02:00:39;;;;;;;9.43;5.90;;;4.90;99.90;;;;;;5112987;28;20421;-70
2021/04/25 02:03:05;;;;;;;9.80;6.20;;;4.80;99.90;;;;;;5113368;28;20801;-71
2021/04/25 02:05:31;;;;;;;12.03;6.90;;;4.80;99.90;;;;;;5113059;28;20412;-71
2021/04/25 02:07:57;;;;;;;12.33;6.00;;;4.80;99.90;;;;;;5113000;28;20389;-71
2021/04/25 02:10:23;;;;;;;9.83;6.30;;;4.80;99.90;;;;;;5112944;28;20392;-71
2021/04/25 02:12:50;;;;;;;11.87;6.27;;;4.80;99.90;;;;;;5112928;28;20484;-71
2021/04/25 02:15:16;;;;;;;10.33;5.80;;;4.70;99.90;;;;;;5112819;28;20947;-71
2021/04/25 02:17:42;;;;;;;12.03;6.87;;;4.70;99.90;;;;;;5113075;28;20388;-71
2021/04/25 02:20:12;;;;;;;7.83;5.80;;;4.70;99.90;;;;;;5112683;28;20388;-71
2021/04/25 02:22:38;;;;;;;11.23;5.87;;;4.60;99.90;;;;;;5112759;28;20447;-71
2021/04/25 02:25:06;;;;;;;10.83;6.70;;;4.60;99.90;;;;;;5112718;28;20419;-71
2021/04/25 02:27:32;;;;;;;9.60;6.20;;;4.60;99.90;;;;;;5112992;28;20435;-70
2021/04/25 02:29:59;;;;;;;9.07;5.87;;;4.60;99.90;;;;;;5116287;28;20411;-70
2021/04/25 02:32:24;;;;;;;13.30;6.67;;;4.50;99.90;;;;;;5116753;28;20755;-71
2021/04/25 02:34:50;;;;;;;12.77;6.13;;;4.50;99.90;;;;;;5116822;28;20394;-68
2021/04/25 02:37:15;;;;;;;10.47;6.00;;;4.50;99.90;;;;;;5116366;28;20165;-68
2021/04/25 02:39:41;;;;;;;11.63;6.27;;;4.50;99.90;;;;;;5117049;28;20336;-71
2021/04/25 02:42:07;;;;;;;10.40;6.27;;;4.50;99.90;;;;;;5116201;28;20650;-70
2021/04/25 02:44:32;;;;;;;8.93;6.40;;;4.50;99.90;;;;;;5116260;28;20166;-71
2021/04/25 02:46:58;;;;;;;14.00;6.10;;;4.50;99.90;;;;;;5116300;28;20165;-71
2021/04/25 02:49:24;;;;;;;15.80;6.93;;;4.40;99.90;;;;;;5116137;28;20181;-71
2021/04/25 02:51:49;;;;;;;10.23;7.37;;;4.40;99.90;;;;;;5116007;28;20162;-70
2021/04/25 02:54:15;;;;;;;11.90;6.67;;;4.30;99.90;;;;;;5116045;28;20571;-70
2021/04/25 02:56:40;;;;;;;10.90;6.00;;;4.30;99.90;;;;;;5116061;28;20259;-71
2021/04/25 02:59:06;;;;;;;11.80;7.97;;;4.30;99.90;;;;;;5115844;28;20185;-71
2021/04/25 03:01:32;;;;;;;12.17;6.60;;;4.30;99.90;;;;;;5115915;28;20188;-71
2021/04/25 03:03:57;;;;;;;13.73;6.93;;;4.30;99.90;;;;;;5116174;28;20226;-70
2021/04/25 03:06:23;;;;;;;9.70;6.00;;;4.30;99.90;;;;;;5115678;28;20181;-71
2021/04/25 03:08:48;;;;;;;9.63;6.00;;;4.30;99.90;;;;;;5115730;28;20186;-71
2021/04/25 03:11:14;;;;;;;18.07;6.80;;;4.40;99.90;;;;;;5115857;28;20288;-70
2021/04/25 03:13:39;;;;;;;10.90;6.83;;;4.40;99.90;;;;;;5115703;28;20158;-71
2021/04/25 03:16:05;;;;;;;13.30;7.00;;;4.40;99.90;;;;;;5115870;28;20154;-71
2021/04/25 03:18:31;;;;;;;10.47;6.67;;;4.40;99.90;;;;;;5115711;28;20165;-71
2021/04/25 03:20:56;;;;;;;9.50;6.73;;;4.40;99.90;;;;;;5115198;28;20206;-70
2021/04/25 03:23:22;;;;;;;11.57;7.27;;;4.40;99.90;;;;;;5115505;28;20727;-71
2021/04/25 03:25:48;;;;;;;11.90;7.00;;;4.40;99.90;;;;;;5115317;28;20211;-70
2021/04/25 03:28:13;;;;;;;15.40;6.53;;;4.40;99.90;;;;;;5115271;28;20669;-71
2021/04/25 03:30:39;;;;;;;8.50;7.00;;;4.40;99.90;;;;;;5115606;28;20165;-71
2021/04/25 03:33:05;;;;;;;10.83;7.00;;;4.40;99.90;;;;;;5115485;28;20185;-71
2021/04/25 03:35:31;;;;;;;8.80;6.73;;;4.40;99.90;;;;;;5115425;28;20525;-71
2021/04/25 03:37:57;;;;;;;13.57;8.20;;;4.30;99.90;;;;;;5115291;28;20431;-71
2021/04/25 03:40:22;;;;;;;12.77;7.13;;;4.30;99.90;;;;;;5115071;28;20454;-70
2021/04/25 03:42:48;;;;;;;9.47;6.80;;;4.30;99.90;;;;;;5114981;28;20185;-70
2021/04/25 03:45:15;;;;;;;9.90;7.23;;;4.20;99.90;;;;;;5115246;28;20162;-71
2021/04/25 03:47:43;;;;;;;13.20;8.00;;;4.20;99.90;;;;;;5115161;28;20157;-71
2021/04/25 03:50:09;;;;;;;16.00;7.67;;;4.20;99.90;;;;;;5114807;28;20527;-70
2021/04/25 03:52:35;;;;;;;9.23;7.03;;;4.20;99.90;;;;;;5114898;28;20435;-71
2021/04/25 03:55:00;;;;;;;15.57;9.77;;;4.20;99.90;;;;;;5114732;28;20393;-71
2021/04/25 03:57:26;;;;;;;10.80;7.60;;;4.20;99.90;;;;;;5114611;28;20178;-71
2021/04/25 03:59:51;;;;;;;11.50;8.80;;;4.20;99.90;;;;;;5114815;28;20189;-71
2021/04/25 04:02:17;;;;;;;15.17;8.10;;;4.10;99.90;;;;;;5115079;28;20197;-71
2021/04/25 04:04:42;;;;;;;12.30;8.10;;;4.10;99.90;;;;;;5114797;28;20488;-71
2021/04/25 04:07:08;;;;;;;14.63;7.37;;;4.10;99.90;;;;;;5114811;28;20632;-71
2021/04/25 04:09:33;;;;;;;13.17;7.80;;;4.10;99.90;;;;;;5114656;28;20225;-70
2021/04/25 04:11:59;;;;;;;12.97;8.23;;;4.10;99.90;;;;;;5114616;28;20196;-71
2021/04/25 04:14:24;;;;;;;11.03;7.63;;;4.10;99.90;;;;;;5115460;28;20209;-71
2021/04/25 04:16:50;;;;;;;16.27;9.43;;;4.10;99.90;;;;;;5114774;28;20161;-71
2021/04/25 04:19:16;;;;;;;15.27;9.17;;;4.00;99.90;;;;;;5114406;28;20173;-71
2021/04/25 04:21:41;;;;;;;13.47;7.43;;;4.00;99.90;;;;;;5114428;28;20292;-71
2021/04/25 04:24:07;;;;;;;12.30;8.00;;;4.00;99.90;;;;;;5114324;28;20675;-70
2021/04/25 04:26:33;;;;;;;14.77;8.10;;;4.10;99.90;;;;;;5114083;28;20534;-71
2021/04/25 04:28:58;;;;;;;14.30;9.00;;;4.10;99.90;;;;;;5115104;28;20482;-71
2021/04/25 04:31:24;;;;;;;11.60;8.47;;;4.10;99.90;;;;;;5114428;28;20178;-71
2021/04/25 04:33:49;;;;;;;13.70;9.20;;;4.10;99.90;;;;;;5114292;28;20245;-71
2021/04/25 04:36:15;;;;;;;12.90;8.50;;;4.20;99.90;;;;;;5114241;28;20166;-71
2021/04/25 04:38:41;;;;;;;13.33;8.83;;;4.20;99.90;;;;;;5113863;28;20173;-70
2021/04/25 04:41:06;;;;;;;16.50;8.73;;;4.30;99.90;;;;;;5114004;28;20193;-70
2021/04/25 04:43:32;;;;;;;14.40;10.03;;;4.30;99.90;;;;;;5115177;28;20599;-71
2021/04/25 04:45:57;;;;;;;14.90;9.13;;;4.40;99.90;;;;;;5114523;28;20531;-71
2021/04/25 04:48:23;;;;;;;15.23;8.80;;;4.40;99.90;;;;;;5114059;28;20207;-70
2021/04/25 04:50:48;;;;;;;15.20;9.90;;;4.50;99.90;;;;;;5113828;28;20190;-71
2021/04/25 04:53:14;;;;;;;12.53;8.67;;;4.50;99.90;;;;;;5113737;28;20190;-71
2021/04/25 04:55:40;;;;;;;13.60;8.43;;;4.60;99.90;;;;;;5113914;28;20153;-70
2021/04/25 04:58:06;;;;;;;14.60;10.00;;;4.60;99.90;;;;;;5114853;28;20146;-71
2021/04/25 05:00:31;;;;;;;14.53;10.00;;;4.70;99.90;;;;;;5113644;28;20475;-71
2021/04/25 05:02:57;;;;;;;17.73;9.03;;;4.80;99.90;;;;;;5113898;28;20166;-70
2021/04/25 05:05:22;;;;;;;16.70;9.50;;;4.80;99.90;;;;;;5113811;28;20572;-71
2021/04/25 05:07:48;;;;;;;13.20;9.30;;;4.80;99.90;;;;;;5113998;28;20169;-71
2021/04/25 05:10:13;;;;;;;10.80;7.40;;;4.90;99.90;;;;;;5113753;28;20187;-71
2021/04/25 05:12:39;;;;;;;13.57;9.00;;;4.90;99.90;;;;;;5114263;28;20163;-71
2021/04/25 05:15:07;;;;;;;12.20;9.07;;;4.90;99.90;;;;;;5113774;28;20162;-71
2021/04/25 05:17:32;;;;;;;12.80;8.80;;;5.00;99.90;;;;;;5113871;28;20221;-70
2021/04/25 05:19:58;;;;;;;13.63;8.67;;;5.10;99.90;;;;;;5113665;28;20435;-70
2021/04/25 05:22:24;;;;;;;17.97;8.47;;;5.10;99.90;;;;;;5113315;28;20671;-71
2021/04/25 05:24:49;;;;;;;13.80;8.07;;;5.20;99.90;;;;;;5113681;28;20174;-70
2021/04/25 05:27:15;;;;;;;14.63;9.67;;;5.20;99.90;;;;;;5114206;28;20410;-71
2021/04/25 05:29:41;;;;;;;14.83;8.10;;;5.20;99.90;;;;;;5113604;28;20158;-71
2021/04/25 05:32:07;;;;;;;13.23;8.20;;;5.30;99.90;;;;;;5113670;28;20191;-71
2021/04/25 05:34:33;;;;;;;13.43;7.57;;;5.30;99.90;;;;;;5113552;28;20387;-70
2021/04/25 05:36:59;;;;;;;10.67;7.40;;;5.40;99.90;;;;;;5113219;28;20158;-71
2021/04/25 05:39:24;;;;;;;12.97;7.00;;;5.50;99.90;;;;;;5113264;28;20415;-71
2021/04/25 05:41:50;;;;;;;11.37;6.83;;;5.50;99.90;;;;;;5114138;28;20182;-71
2021/04/25 05:44:15;;;;;;;8.70;6.57;;;5.60;99.90;;;;;;5113466;28;20158;-71
2021/04/25 05:46:41;;;;;;;9.50;7.17;;;5.70;99.90;;;;;;5113480;28;20155;-71
2021/04/25 05:49:06;;;;;;;13.53;8.60;;;5.70;99.90;;;;;;5113197;28;20562;-70
2021/04/25 05:51:32;;;;;;;9.73;7.20;;;5.70;99.90;;;;;;5113278;28;20232;-71
2021/04/25 05:53:58;;;;;;;9.57;7.43;;;5.70;99.90;;;;;;5113420;28;20154;-71
2021/04/25 05:56:23;;;;;;;12.27;7.53;;;5.80;99.90;;;;;;5114122;28;20634;-71
2021/04/25 05:58:49;;;;;;;12.30;7.50;;;5.80;99.90;;;;;;5113162;28;20537;-71
2021/04/25 06:01:15;;;;;;;9.17;7.03;;;5.80;99.90;;;;;;5113192;28;20187;-71
2021/04/25 06:03:42;;;;;;;12.87;6.50;;;5.90;99.90;;;;;;5114722;28;20158;-71
2021/04/25 06:06:07;;;;;;;9.73;7.20;;;5.90;99.90;;;;;;5117096;28;20562;-71
2021/04/25 06:08:33;;;;;;;10.87;7.43;;;6.00;99.90;;;;;;5117195;28;20388;-71
2021/04/25 06:10:59;;;;;;;9.63;6.83;;;6.00;99.90;;;;;;5117821;28;20158;-71
2021/04/25 06:13:24;;;;;;;8.90;6.90;;;6.10;99.90;;;;;;5117167;28;20174;-71
2021/04/25 06:15:50;;;;;;;7.03;6.07;;;6.20;99.90;;;;;;5117102;28;20159;-71
2021/04/25 06:18:15;;;;;;;12.97;6.73;;;6.20;99.90;;;;;;5116810;28;20648;-71
2021/04/25 06:20:41;;;;;;;10.87;7.27;;;6.30;99.90;;;;;;5116645;28;20178;-71
2021/04/25 06:23:07;;;;;;;11.63;7.40;;;6.30;99.90;;;;;;5116833;28;20147;-70
2021/04/25 06:25:32;;;;;;;8.53;6.20;;;6.40;99.90;;;;;;5117124;28;20249;-71
2021/04/25 06:27:58;;;;;;;9.60;6.80;;;6.50;99.90;;;;;;5116741;28;20626;-71
2021/04/25 06:30:24;;;;;;;7.80;7.00;;;6.50;99.90;;;;;;5116445;28;20171;-71
2021/04/25 06:32:49;;;;;;;11.97;7.67;;;6.50;99.90;;;;;;5116705;28;20597;-70
2021/04/25 06:35:16;;;;;;;10.10;6.13;;;6.50;99.90;;;;;;5116527;28;20191;-71
2021/04/25 06:37:44;;;;;;;9.00;7.53;;;6.50;99.90;;;;;;5116773;28;20166;-71
2021/04/25 06:40:11;;;;;;;8.33;6.97;;;6.60;99.90;;;;;;5117093;28;20423;-70
2021/04/25 06:42:39;;;;;;;11.97;7.10;;;6.60;99.90;;;;;;5116442;28;20434;-71
2021/04/25 06:45:08;;;;;;;8.43;6.30;;;6.60;99.90;;;;;;5116390;28;20433;-71
2021/04/25 06:47:34;;;;;;;9.53;6.80;;;6.70;99.90;;;;;;5116175;28;20399;-71
2021/04/25 06:49:59;;;;;;;10.53;7.70;;;6.80;99.90;;;;;;5116414;28;20387;-71
2021/04/25 06:52:25;;;;;;;12.13;7.80;;;6.80;99.90;;;;;;5116428;28;20607;-71
2021/04/25 06:54:50;;;;;;;8.53;7.50;;;6.80;99.90;;;;;;5117084;28;20170;-71
2021/04/25 06:57:16;;;;;;;11.80;8.30;;;6.90;99.60;;;;;;5116128;28;20159;-71
2021/04/25 06:59:41;;;;;;;13.87;10.30;;;6.90;99.40;;;;;;5116295;28;20582;-71
2021/04/25 07:02:07;;;;;;;11.03;8.53;;;6.90;99.30;;;;;;5115927;28;20190;-71
2021/04/25 07:04:32;;;;;;;12.27;8.47;;;7.00;98.60;;;;;;5115734;28;20175;-71
2021/04/25 07:06:58;;;;;;;14.67;12.37;;;7.10;97.50;;;;;;5115993;28;20237;-71
2021/04/25 07:09:23;;;;;;;13.00;11.70;;;7.10;97.20;;;;;;5116958;28;20235;-71
2021/04/25 07:11:49;;;;;;;16.70;14.63;;;7.10;97.20;;;;;;5116171;28;20217;-71
2021/04/25 07:14:14;;;;;;;16.43;14.80;;;7.10;96.50;;;;;;5115421;28;20501;-71
2021/04/25 07:16:40;;;;;;;17.93;14.90;;;7.20;96.30;;;;;;5115676;28;20574;-71
2021/04/25 07:19:05;;;;;;;20.83;16.53;;;7.30;95.90;;;;;;5115896;28;20151;-71
2021/04/25 07:21:31;;;;;;;18.50;16.40;;;7.40;95.50;;;;;;5115573;28;20218;-71
2021/04/25 07:23:57;;;;;;;18.87;16.97;;;7.40;95.40;;;;;;5116295;28;20540;-71
2021/04/25 07:26:22;;;;;;;20.63;18.50;;;7.30;95.00;;;;;;5115729;28;20669;-71
2021/04/25 07:28:48;;;;;;;20.33;16.97;;;7.40;95.40;;;;;;5115585;28;20153;-71
2021/04/25 07:31:14;;;;;;;19.13;17.00;;;7.30;95.30;;;;;;5115577;28;20167;-70
2021/04/25 07:33:40;;;;;;;18.83;16.77;;;7.30;95.50;;;;;;5115466;28;20528;-71
2021/04/25 07:36:09;;;;;;;19.23;17.20;;;7.40;95.70;;;;;;5115511;28;20409;-71
2021/04/25 07:38:37;;;;;;;20.87;17.10;;;7.50;95.60;;;;;;5116176;28;20249;-71
2021/04/25 07:41:03;;;;;;;21.77;16.93;;;7.60;94.70;;;;;;5115493;28;20447;-71
2021/04/25 07:43:29;;;;;;;18.97;17.00;;;7.80;94.00;;;;;;5115265;28;20391;-71
2021/04/25 07:45:54;;;;;;;16.90;15.07;;;8.00;93.20;;;;;;5115214;28;20149;-71
2021/04/25 07:48:20;;;;;;;16.70;15.10;;;8.30;92.30;;;;;;5115307;28;20158;-71
2021/04/25 07:50:46;;;;;;;17.40;13.83;;;8.40;90.70;;;;;;5115911;28;20242;-71
2021/04/25 07:53:12;;;;;;;13.57;12.27;;;8.40;90.30;;;;;;5115621;28;20146;-71
2021/04/25 07:55:37;;;;;;;15.27;12.70;;;8.60;90.10;;;;;;5115054;28;20760;-71
2021/04/25 07:58:03;;;;;;;15.17;13.50;;;8.80;89.30;;;;;;5115024;28;20161;-71
2021/04/25 08:00:28;;;;;;;14.53;12.80;;;8.90;87.90;;;;;;5114888;28;20188;-71
2021/04/25 08:02:54;;;;;;;13.47;11.53;;;8.90;86.30;;;;;;5114909;28;20553;-71
2021/04/25 08:05:19;;;;;;;10.93;9.83;;;8.90;86.00;;;;;;5115374;28;20166;-71
2021/04/25 08:07:47;;;;;;;9.13;7.87;;;8.90;86.10;;;;;;5115605;28;20168;-71
2021/04/25 08:10:12;;;;;;;8.53;7.73;;;8.80;85.70;;;;;;5114744;28;20199;-71
2021/04/25 08:12:38;;;;;;;8.60;7.07;;;8.80;85.50;;;;;;5114699;28;20388;-71
2021/04/25 08:15:05;;;;;;;6.90;6.20;;;8.70;86.00;;;;;;5114600;28;20578;-71
2021/04/25 08:17:30;;;;;;;6.90;6.13;;;8.70;85.40;;;;;;5114426;28;20187;-71
2021/04/25 08:19:56;;;;;;;9.20;6.77;;;8.70;85.00;;;;;;5115314;28;20427;-71
2021/04/25 08:22:21;;;;;;;9.57;5.87;;;8.80;85.40;;;;;;5114997;28;20201;-71
2021/04/25 08:24:47;;;;;;;9.40;5.53;;;8.90;84.40;;;;;;5114473;28;20161;-71
2021/04/25 08:27:12;;;;;;;10.20;5.20;;;10.00;82.40;;;;;;5113435;28;20167;-71
2021/04/25 08:29:38;;;;;;;7.60;4.47;;;11.80;73.40;;;;;;5114234;28;20165;-71
2021/04/25 08:32:04;;;;;;;6.40;4.40;;;13.60;60.50;;;;;;5114515;28;20159;-71
2021/04/25 08:34:29;;;;;;;6.40;4.97;;;14.50;53.80;;;;;;5114677;28;20162;-71
2021/04/25 08:36:55;;;;;;;6.57;5.37;;;14.60;52.10;;;;;;5114896;28;20165;-71
2021/04/25 08:39:20;;;;;;;8.60;6.17;;;13.80;52.00;;;;;;5114215;28;20170;-71
2021/04/25 08:41:48;;;;;;;9.03;6.00;;;12.90;53.40;;;;;;5114228;28;20646;-71
2021/04/25 08:44:18;;;;;;;8.73;5.70;;;12.30;54.90;;;;;;5114316;28;20181;-71
2021/04/25 08:46:46;;;;;;;5.73;5.13;;;11.70;56.00;;;;;;5114862;28;20987;-71
2021/04/25 08:49:15;;;;;;;6.17;4.20;;;11.30;57.00;;;;;;5114497;28;20387;-71
2021/04/25 08:51:41;;;;;;;8.17;4.60;;;11.00;58.10;;;;;;5114154;28;20946;-71
2021/04/25 08:54:07;;;;;;;7.70;5.23;;;10.80;59.20;;;;;;5114260;28;20472;-71
2021/04/25 08:56:33;;;;;;;7.90;6.30;;;10.60;59.70;;;;;;5114035;28;20187;-71
2021/04/25 08:58:59;;;;;;;8.50;6.80;;;10.50;59.70;;;;;;5113785;28;20209;-71
2021/04/25 09:01:24;;;;;;;9.60;7.43;;;10.20;59.90;;;;;;5115111;28;20456;-71
2021/04/25 09:03:50;;;;;;;7.90;7.10;;;10.00;60.40;;;;;;5114214;28;20158;-71
2021/04/25 09:06:15;;;;;;;8.80;6.43;;;10.00;62.30;;;;;;5114238;28;20524;-71
2021/04/25 09:08:43;;;;;;;9.30;6.87;;;10.00;62.40;;;;;;5113629;28;20193;-70
2021/04/25 09:11:23;;;;;;;6.70;6.00;;;10.10;62.90;;;;;;5113680;28;20196;-70
2021/04/25 09:14:25;;;;;;;7.60;6.30;;;10.40;62.70;;;;;;5113639;28;20878;-71
2021/04/25 09:19:51;;;;;;;6.60;5.93;;;10.70;59.70;;;;;;5036219;28;20571;-70
2021/04/25 09:22:17;;;;;;;10.27;7.20;;;11.20;58.70;;;;;;5025862;28;20404;-70
2021/04/25 09:24:43;;;;;;;7.20;5.63;;;11.50;59.00;;;;;;5026934;28;20400;-70
2021/04/25 09:27:08;;;;;;;9.20;5.43;;;12.00;57.60;;;;;;5026912;28;20797;-70
2021/04/25 09:29:53;;;;;;;9.60;5.80;;;12.60;56.40;;;;;;5028328;28;20181;-70
2021/04/25 09:32:20;;;;;;;11.40;6.17;;;12.90;54.90;;;;;;5028034;28;20188;-70
2021/04/25 09:34:46;;;;;;;5.67;4.10;;;13.10;54.90;;;;;;5027502;28;20380;-70
2021/04/25 09:37:14;;;;;;;5.50;4.10;;;13.60;53.90;;;;;;5026862;28;20481;-70
2021/04/25 09:39:57;;;;;;;9.20;4.67;;;13.80;53.10;;;;;;5026924;28;20399;-70
2021/04/25 09:42:22;;;;;;;5.23;4.60;;;13.60;52.80;;;;;;5026706;28;20400;-70
2021/04/25 09:44:47;;;;;;;6.53;5.87;;;13.50;53.10;;;;;;5027448;28;20789;-70
2021/04/25 09:47:13;;;;;;;7.60;6.77;;;13.60;53.40;;;;;;5026957;28;20236;-70
2021/04/25 09:49:43;;;;;;;7.57;5.63;;;13.70;53.10;;;;;;5027017;28;20160;-70
2021/04/25 09:52:11;;;;;;;10.77;4.53;;;13.90;52.70;;;;;;5026575;28;20154;-70
2021/04/25 09:54:38;;;;;;;5.83;4.50;;;14.30;52.30;;;;;;5026586;28;20391;-71
2021/04/25 09:57:03;;;;;;;5.30;4.63;;;14.50;52.20;;;;;;5026546;28;20415;-70
2021/04/25 09:59:29;;;;;;;9.90;6.70;;;14.60;51.20;;;;;;5026526;28;20433;-70
2021/04/25 10:02:05;;;;;;;8.93;7.77;;;14.70;50.50;;;;;;5026853;28;20166;-70
2021/04/25 10:04:34;;;;;;;9.20;7.70;;;14.40;50.70;;;;;;5026698;28;20669;-70
2021/04/25 10:07:01;;;;;;;10.53;7.63;;;14.20;51.20;;;;;;5026170;28;20408;-70
2021/04/25 10:09:28;;;;;;;8.47;7.57;;;14.00;51.80;;;;;;5026074;28;20976;-70
2021/04/25 10:11:58;;;;;;;10.00;7.00;;;13.90;52.00;;;;;;5026355;28;20401;-70
2021/04/25 10:14:25;;;;;;;6.23;5.37;;;13.90;51.80;;;;;;5026227;28;20805;-70
2021/04/25 10:16:52;;;;;;;8.63;4.70;;;13.70;51.50;;;;;;5026863;28;20392;-70
2021/04/25 10:19:17;;;;;;;6.63;5.90;;;13.50;51.70;;;;;;5026325;28;20459;-70
2021/04/25 10:21:45;;;;;;;10.83;7.97;;;13.20;52.10;;;;;;5026072;28;20393;-70
2021/04/25 10:24:11;;;;;;;7.60;7.00;;;12.60;53.00;;;;;;5026149;28;20671;-70
2021/04/25 10:26:48;;;;;;;7.60;6.03;;;12.30;54.20;;;;;;5025833;28;20424;-70
2021/04/25 10:29:17;;;;;;;12.23;8.93;;;12.10;55.10;;;;;;5021764;28;20763;-70
2021/04/25 10:31:43;;;;;;;9.87;8.23;;;11.80;55.60;;;;;;5013452;28;20419;-70
2021/04/25 10:34:18;;;;;;;10.63;8.13;;;11.50;55.90;;;;;;5012825;28;20431;-70
2021/04/25 10:47:40;;;;;;;7.57;6.87;;;11.20;56.00;;;;;;5131880;27;20633;-70
2021/04/25 10:52:51;;;;;;;8.87;7.97;;;10.30;58.20;;;;;;5131460;27;20561;-70
2021/04/25 11:03:09;;;;;;;8.37;7.63;;;10.10;58.90;;;;;;5090605;27;20519;-71
2021/04/25 11:10:58;;;;;;;8.77;7.87;;;9.80;62.60;;;;;;5090544;27;20567;-71
2021/04/25 11:26:52;;;;;;;6.87;6.17;;;9.70;62.90;;;;;;5131448;27;20923;-71
2021/04/25 11:32:05;;;;;;;7.00;6.20;;;9.70;65.10;;;;;;5111080;27;20508;-71
2021/04/25 11:45:12;;;;;;;8.27;6.13;;;9.70;65.90;;;;;;5091152;28;20518;-71
2021/04/25 11:50:40;;;;;;;7.17;5.57;;;9.70;66.60;;;;;;5111110;27;20910;-71
2021/04/25 11:53:06;;;;;;;5.93;5.50;;;9.80;66.50;;;;;;5094382;28;20977;-71
2021/04/25 11:55:32;;;;;;;7.20;5.60;;;9.80;66.30;;;;;;5090450;28;20381;-70
2021/04/25 11:57:58;;;;;;;6.37;5.20;;;9.70;66.00;;;;;;5091159;28;20155;-71
2021/04/25 12:00:29;;;;;;;5.80;5.30;;;9.70;66.20;;;;;;5090638;28;20411;-70
2021/04/25 12:02:58;;;;;;;6.90;5.67;;;9.70;66.30;;;;;;5090634;28;20161;-71
2021/04/25 12:05:33;;;;;;;5.30;4.80;;;9.60;66.80;;;;;;5090512;28;20378;-71
2021/04/25 12:10:42;;;;;;;7.03;6.17;;;9.70;67.10;;;;;;5131734;27;20515;-70
2021/04/25 12:13:32;;;;;;;6.37;5.53;;;9.70;66.50;;;;;;5132014;28;20399;-70
2021/04/25 12:16:01;;;;;;;12.00;5.73;;;9.60;66.40;;;;;;5131408;28;20523;-70
2021/04/25 12:18:43;;;;;;;5.47;4.97;;;9.70;66.40;;;;;;5131531;28;20392;-70
2021/04/25 12:21:15;;;;;;;8.53;5.93;;;9.70;65.30;;;;;;5131436;28;20928;-70
2021/04/25 12:23:49;;;;;;;7.40;6.00;;;9.70;66.20;;;;;;5131402;28;20447;-70
2021/04/25 12:26:17;;;;;;;8.30;6.47;;;9.70;67.10;;;;;;5123587;27;20403;-70
2021/04/25 12:31:23;;;;;;;7.67;6.67;;;9.80;67.50;;;;;;5111000;27;20516;-71
2021/04/25 12:33:53;;;;;;;8.93;8.10;;;9.70;67.50;;;;;;5110930;28;20402;-71
2021/04/25 12:36:20;;;;;;;7.90;7.03;;;9.80;67.30;;;;;;5110887;28;20480;-71
2021/04/25 12:39:07;;;;;;;9.30;7.97;;;9.80;67.10;;;;;;5110766;28;20895;-71
2021/04/25 12:41:43;;;;;;;8.57;7.70;;;9.80;67.30;;;;;;5110540;28;20443;-71
2021/04/25 12:44:09;;;;;;;8.30;7.53;;;9.80;67.50;;;;;;5093278;28;20474;-71
2021/04/25 12:46:35;;;;;;;11.03;7.10;;;9.80;66.90;;;;;;5090335;28;20814;-71
2021/04/25 12:49:03;;;;;;;7.47;6.30;;;9.80;67.10;;;;;;5090586;28;20389;-71
2021/04/25 12:51:32;;;;;;;7.70;6.90;;;9.80;66.60;;;;;;5090249;28;20208;-71
2021/04/25 12:56:45;;;;;;;8.97;6.80;;;9.80;67.50;;;;;;5127323;27;20593;-70
2021/04/25 13:04:41;;;;;;;8.43;7.63;;;9.80;67.10;;;;;;5111070;27;21017;-70
2021/04/25 13:12:45;;;;;;;6.60;6.00;;;10.00;65.10;;;;;;5111334;27;20498;-70
2021/04/25 13:20:34;;;;;;;7.37;6.53;;;10.00;63.50;;;;;;5131497;27;20518;-69
2021/04/25 13:25:41;;;;;;;9.30;7.37;;;9.90;63.70;;;;;;5132144;27;20561;-70
2021/04/25 13:28:09;;;;;;;9.57;7.00;;;9.90;64.40;;;;;;5131680;28;20388;-70
2021/04/25 13:30:39;;;;;;;9.87;7.80;;;9.90;64.80;;;;;;5131585;28;20414;-70
2021/04/25 13:33:07;;;;;;;9.90;7.30;;;9.90;64.80;;;;;;5130786;28;20790;-70
2021/04/25 13:35:32;;;;;;;10.37;7.00;;;9.90;65.10;;;;;;5110354;28;20495;-70
2021/04/25 13:37:59;;;;;;;7.10;6.40;;;9.90;65.90;;;;;;5111004;28;20475;-70
2021/04/25 13:40:27;;;;;;;9.43;6.00;;;10.00;64.10;;;;;;5111520;28;20237;-70
2021/04/25 13:42:53;;;;;;;7.90;7.20;;;9.90;63.20;;;;;;5110721;28;20403;-70
2021/04/25 13:45:19;;;;;;;10.73;6.43;;;9.90;64.50;;;;;;5110586;28;20955;-70
2021/04/25 13:47:45;;;;;;;6.90;6.30;;;9.90;64.80;;;;;;5110895;28;20508;-71
2021/04/25 13:50:13;;;;;;;7.50;6.57;;;9.90;63.70;;;;;;5109780;28;20281;-70
2021/04/25 13:52:38;;;;;;;11.00;7.27;;;9.90;64.30;;;;;;5110750;28;20396;-70
2021/04/25 13:55:07;;;;;;;8.47;6.10;;;9.90;64.00;;;;;;5110777;28;20404;-70
2021/04/25 13:57:33;;;;;;;7.53;5.87;;;9.90;64.60;;;;;;5110440;28;20161;-70
2021/04/25 13:59:58;;;;;;;7.10;6.50;;;9.90;65.10;;;;;;5110231;28;20437;-70
2021/04/25 14:02:24;;;;;;;7.43;6.73;;;9.90;65.90;;;;;;5110280;28;20617;-70
2021/04/25 14:04:50;;;;;;;8.23;5.83;;;9.90;66.20;;;;;;5110246;28;20531;-70
2021/04/25 14:07:16;;;;;;;9.47;5.30;;;9.90;66.40;;;;;;5109684;28;20575;-70
2021/04/25 14:09:41;;;;;;;8.00;5.87;;;10.00;65.00;;;;;;5110694;28;20833;-70
2021/04/25 14:12:07;;;;;;;10.60;6.87;;;10.00;64.20;;;;;;5110315;28;20162;-70